Time;durP1;ratioP1;P1;durP2;ratioP2;P2;SDS_P1;SDS_P2;PMS_P1;PMS_P2;Temp;Humidity;BMP_temperature;BMP_pressure;BME280_temperature;BME280_humidity;BME280_pressure;Samples;Min_cycle;Max_cycle;Signal;HPM_P1;HPM_P2
2021/07/30 00:01:20;;;;;;;5.42;2.62;;;;;;;16.31;79.05;95567.20;1777422;80;21017;-59
2021/07/30 00:03:46;;;;;;;3.33;2.65;;;;;;;16.34;78.90;95560.41;1777604;81;21076;-59
2021/07/30 00:06:13;;;;;;;2.27;1.92;;;;;;;16.32;79.03;95556.46;1777371;81;21014;-59
2021/07/30 00:08:40;;;;;;;3.95;2.72;;;;;;;16.26;78.34;95557.20;1777979;80;21014;-59
2021/07/30 00:11:07;;;;;;;5.28;2.50;;;;;;;16.19;79.32;95556.11;1777473;80;21002;-59
2021/07/30 00:13:34;;;;;;;3.77;2.67;;;;;;;16.20;79.34;95551.64;1777731;80;21484;-60
2021/07/30 00:16:01;;;;;;;5.45;3.17;;;;;;;16.18;79.41;95549.53;1777519;80;21006;-59
2021/07/30 00:18:28;;;;;;;7.50;3.00;;;;;;;16.17;79.51;95546.45;1777604;80;21006;-59
2021/07/30 00:20:55;;;;;;;3.58;3.02;;;;;;;16.17;79.59;95555.30;1778093;81;21467;-59
2021/07/30 00:23:22;;;;;;;3.27;2.55;;;;;;;16.15;79.06;95553.62;1777869;80;21496;-59
2021/07/30 00:25:49;;;;;;;3.85;2.77;;;;;;;16.03;79.54;95560.34;1777864;81;21010;-59
2021/07/30 00:28:16;;;;;;;3.25;2.80;;;;;;;16.04;79.97;95562.06;1734105;81;21018;-59
2021/07/30 00:30:43;;;;;;;6.92;2.77;;;;;;;16.06;79.87;95550.89;1777912;80;20994;-59
2021/07/30 00:33:10;;;;;;;3.80;3.00;;;;;;;16.04;79.50;95547.42;1777844;81;20974;-59
2021/07/30 00:35:36;;;;;;;3.58;2.77;;;;;;;16.10;79.54;95544.97;1777794;81;20994;-59
2021/07/30 00:38:03;;;;;;;4.50;3.10;;;;;;;16.09;79.05;95548.57;1777653;80;21014;-59
2021/07/30 00:40:30;;;;;;;4.10;2.67;;;;;;;15.97;78.80;95550.78;1777354;81;21006;-59
2021/07/30 00:42:56;;;;;;;3.15;2.72;;;;;;;15.94;78.76;95546.92;1778094;81;20994;-59
2021/07/30 00:45:23;;;;;;;3.62;3.00;;;;;;;15.97;79.71;95546.80;1777506;80;21495;-59
2021/07/30 00:47:51;;;;;;;3.50;2.90;;;;;;;15.90;79.73;95550.66;1777858;81;20998;-59
2021/07/30 00:50:18;;;;;;;7.53;3.00;;;;;;;15.86;79.38;95545.05;1777908;80;21032;-59
2021/07/30 00:52:46;;;;;;;4.08;2.75;;;;;;;15.76;79.91;95541.87;1777144;80;21010;-59
2021/07/30 00:55:13;;;;;;;3.37;2.58;;;;;;;15.71;79.87;95545.66;1777345;80;21006;-60
2021/07/30 00:57:40;;;;;;;3.70;2.83;;;;;;;15.68;79.60;95541.77;1778003;81;20997;-59
2021/07/30 01:00:08;;;;;;;4.85;3.12;;;;;;;15.68;80.19;95543.09;1777735;81;21034;-59
2021/07/30 01:02:36;;;;;;;4.37;2.65;;;;;;;15.65;80.63;95538.77;1777859;80;20982;-59
2021/07/30 01:05:04;;;;;;;6.55;2.75;;;;;;;15.67;80.85;95540.01;1777814;81;21025;-59
2021/07/30 01:07:31;;;;;;;4.40;2.35;;;;;;;15.63;80.55;95541.08;1777890;80;20977;-59
2021/07/30 01:09:59;;;;;;;5.85;3.08;;;;;;;15.59;80.68;95536.32;1777886;80;21037;-60
2021/07/30 01:12:26;;;;;;;5.12;2.87;;;;;;;15.62;80.32;95535.34;1787733;80;21045;-59
2021/07/30 01:14:55;;;;;;;2.95;2.60;;;;;;;15.69;80.47;95535.50;1787978;80;21032;-59
2021/07/30 01:17:24;;;;;;;4.25;2.62;;;;;;;15.70;79.83;95538.15;1787417;80;21535;-60
2021/07/30 01:19:52;;;;;;;6.00;2.90;;;;;;;15.66;80.08;95543.14;1787858;80;20966;-59
2021/07/30 01:22:29;;;;;;;5.12;2.90;;;;;;;15.62;79.70;95544.17;1787378;80;21068;-59
2021/07/30 01:24:56;;;;;;;4.47;2.60;;;;;;;15.56;79.43;95537.31;1787497;80;20982;-60
2021/07/30 01:27:23;;;;;;;3.08;2.77;;;;;;;15.58;79.37;95538.12;1787503;80;20978;-59
2021/07/30 01:29:51;;;;;;;5.58;2.70;;;;;;;15.62;80.01;95536.19;1787581;80;20981;-59
2021/07/30 01:32:19;;;;;;;5.05;2.40;;;;;;;15.54;80.42;95531.17;1787492;80;21527;-59
2021/07/30 01:34:47;;;;;;;4.08;2.40;;;;;;;15.55;80.31;95532.93;1788117;80;21013;-59
2021/07/30 01:37:14;;;;;;;3.37;2.90;;;;;;;15.50;79.78;95532.72;1787984;80;21013;-59
2021/07/30 01:39:41;;;;;;;5.30;2.30;;;;;;;15.41;79.90;95532.59;1787465;80;21010;-59
2021/07/30 01:42:08;;;;;;;3.10;2.70;;;;;;;15.44;79.83;95523.62;1787359;80;21009;-59
2021/07/30 01:44:35;;;;;;;3.22;2.35;;;;;;;15.48;80.03;95530.10;1787403;80;21476;-60
2021/07/30 01:47:02;;;;;;;7.15;2.58;;;;;;;15.47;79.95;95522.17;1787729;80;21506;-59
2021/07/30 01:49:29;;;;;;;5.53;2.80;;;;;;;15.44;79.56;95522.30;1787600;80;21025;-59
2021/07/30 01:51:55;;;;;;;3.00;2.45;;;;;;;15.42;79.35;95526.80;1787562;80;20981;-59
2021/07/30 01:54:22;;;;;;;3.00;2.60;;;;;;;15.34;79.13;95531.09;1787992;80;20977;-58
2021/07/30 01:56:49;;;;;;;3.12;2.58;;;;;;;15.29;79.33;95538.38;1787751;80;21010;-59
2021/07/30 01:59:15;;;;;;;3.42;2.70;;;;;;;15.25;79.92;95538.96;1787740;80;21001;-59
2021/07/30 02:01:42;;;;;;;3.27;2.85;;;;;;;15.33;79.80;95538.67;1787943;80;21010;-59
2021/07/30 02:04:09;;;;;;;4.70;3.25;;;;;;;15.34;79.36;95541.72;1787899;80;21064;-59
2021/07/30 02:06:36;;;;;;;3.00;2.47;;;;;;;15.25;79.96;95536.30;1787487;80;21037;-59
2021/07/30 02:09:03;;;;;;;4.20;2.52;;;;;;;15.15;80.38;95531.79;1787760;80;20941;-59
2021/07/30 02:11:30;;;;;;;4.17;2.45;;;;;;;15.06;80.31;95534.78;1787408;80;21507;-59
2021/07/30 02:16:47;;;;;;;5.25;2.80;;;;;;;14.93;81.17;95534.37;1787765;80;21002;-59
2021/07/30 02:19:19;;;;;;;6.17;2.95;;;;;;;14.90;81.57;95535.81;1782612;80;21009;-60
2021/07/30 02:21:53;;;;;;;4.05;3.15;;;;;;;14.88;81.58;95540.31;1787782;80;21011;-59
2021/07/30 02:24:21;;;;;;;5.50;2.40;;;;;;;14.88;81.42;95539.45;1787644;80;20957;-60
2021/07/30 02:26:48;;;;;;;2.95;2.50;;;;;;;14.86;81.13;95543.95;1787104;80;21048;-59
2021/07/30 02:29:15;;;;;;;3.08;2.45;;;;;;;14.89;80.83;95540.73;1787556;80;21057;-59
2021/07/30 02:31:42;;;;;;;2.98;2.45;;;;;;;14.91;80.40;95544.65;1787483;80;21060;-59
2021/07/30 02:34:10;;;;;;;7.87;2.50;;;;;;;14.86;80.75;95551.45;1787386;80;21538;-59
2021/07/30 02:36:36;;;;;;;4.08;2.83;;;;;;;14.82;80.54;95543.67;1787834;80;20969;-59
2021/07/30 02:39:04;;;;;;;3.45;2.40;;;;;;;14.76;80.48;95540.75;1787965;80;20946;-59
2021/07/30 02:41:31;;;;;;;3.12;2.35;;;;;;;14.70;80.59;95543.64;1787381;80;21503;-59
2021/07/30 02:43:58;;;;;;;3.07;2.60;;;;;;;14.66;80.39;95536.22;1787690;80;20998;-59
2021/07/30 02:46:25;;;;;;;5.42;2.83;;;;;;;14.71;80.73;95546.69;1787830;80;21009;-62
2021/07/30 02:48:52;;;;;;;4.10;2.80;;;;;;;14.83;80.75;95545.39;1787510;80;20986;-59
2021/07/30 02:51:19;;;;;;;3.27;2.62;;;;;;;14.92;80.45;95547.73;1787794;80;21554;-59
2021/07/30 02:53:46;;;;;;;4.15;2.42;;;;;;;14.89;80.22;95550.03;1787704;80;21000;-59
2021/07/30 02:56:13;;;;;;;3.20;2.52;;;;;;;14.82;79.85;95550.31;1787674;80;21045;-60
2021/07/30 02:58:40;;;;;;;3.87;2.22;;;;;;;14.75;80.19;95548.33;1787560;80;21048;-59
2021/07/30 03:01:07;;;;;;;4.55;2.47;;;;;;;14.64;80.38;95546.06;1787630;80;20974;-59
2021/07/30 03:03:33;;;;;;;2.85;2.50;;;;;;;14.64;81.06;95547.82;1787634;80;21048;-59
2021/07/30 03:06:01;;;;;;;9.38;2.75;;;;;;;14.64;80.73;95545.16;1787781;80;21511;-59
2021/07/30 03:08:28;;;;;;;4.72;2.65;;;;;;;14.63;81.46;95543.44;1787521;80;20989;-59
2021/07/30 03:10:56;;;;;;;3.22;2.58;;;;;;;14.62;81.22;95543.91;1788707;80;20978;-59
2021/07/30 03:13:24;;;;;;;4.10;2.33;;;;;;;14.64;80.92;95542.52;1796098;79;20998;-59
2021/07/30 03:15:55;;;;;;;2.92;2.37;;;;;;;14.69;80.84;95540.13;1796037;79;21013;-59
2021/07/30 03:18:23;;;;;;;4.45;2.80;;;;;;;14.77;80.66;95537.66;1795993;80;21054;-59
2021/07/30 03:20:50;;;;;;;2.80;2.00;;;;;;;14.76;80.07;95537.23;1796327;79;21017;-59
2021/07/30 03:23:17;;;;;;;2.37;2.17;;;;;;;14.66;79.71;95534.03;1796196;80;20997;-59
2021/07/30 03:25:44;;;;;;;5.10;2.60;;;;;;;14.56;80.12;95540.13;1796105;79;21001;-59
2021/07/30 03:28:10;;;;;;;4.87;3.00;;;;;;;14.59;80.48;95536.50;1796299;79;20993;-59
2021/07/30 03:30:38;;;;;;;3.67;3.10;;;;;;;14.68;80.45;95535.72;1796206;79;20993;-59
2021/07/30 03:33:04;;;;;;;3.45;2.60;;;;;;;14.77;80.21;95533.20;1796281;80;21532;-59
2021/07/30 03:35:31;;;;;;;5.62;2.90;;;;;;;14.80;79.91;95521.61;1796302;79;20954;-62
2021/07/30 03:37:58;;;;;;;5.35;2.77;;;;;;;14.74;80.35;95525.36;1796040;79;21040;-59
2021/07/30 03:40:25;;;;;;;3.45;2.20;;;;;;;14.71;80.38;95526.30;1796343;80;20949;-59
2021/07/30 03:42:52;;;;;;;4.55;2.80;;;;;;;14.69;81.07;95528.61;1795963;80;21056;-60
2021/07/30 03:45:19;;;;;;;2.85;2.40;;;;;;;14.69;80.94;95533.48;1796229;79;21470;-59
2021/07/30 03:47:46;;;;;;;4.37;3.00;;;;;;;14.67;81.15;95532.66;1796316;79;21463;-59
2021/07/30 03:50:12;;;;;;;3.17;2.52;;;;;;;14.66;80.89;95535.36;1796220;80;21021;-59
2021/07/30 03:52:39;;;;;;;2.85;2.52;;;;;;;14.66;81.01;95536.69;1796386;80;21020;-59
2021/07/30 03:55:07;;;;;;;5.08;2.70;;;;;;;14.64;81.35;95539.42;1796404;79;21439;-59
2021/07/30 03:57:35;;;;;;;6.05;2.60;;;;;;;14.68;81.72;95537.04;1796158;80;21060;-59
2021/07/30 04:00:02;;;;;;;2.83;2.52;;;;;;;14.76;81.92;95533.25;1796687;80;20965;-59
2021/07/30 04:02:30;;;;;;;3.12;2.33;;;;;;;14.82;81.66;95533.05;1795829;80;21514;-59
2021/07/30 04:04:57;;;;;;;3.30;2.90;;;;;;;14.86;82.01;95529.34;1796446;80;21463;-59
2021/07/30 04:07:24;;;;;;;4.20;3.10;;;;;;;15.01;81.94;95526.58;1796076;80;21518;-59
2021/07/30 04:09:53;;;;;;;4.08;3.10;;;;;;;15.17;81.88;95529.52;1796567;80;21442;-60
2021/07/30 04:12:19;;;;;;;5.17;2.98;;;;;;;15.36;81.30;95522.13;1796355;80;21085;-59
2021/07/30 04:14:45;;;;;;;4.22;2.98;;;;;;;15.46;80.79;95525.30;1796280;80;21056;-59
2021/07/30 04:17:11;;;;;;;3.45;3.15;;;;;;;15.58;80.64;95527.95;1796097;79;21044;-59
2021/07/30 04:19:43;;;;;;;5.05;3.05;;;;;;;15.69;80.41;95527.09;1796414;79;20981;-60
2021/07/30 04:22:07;;;;;;;5.45;2.85;;;;;;;15.83;80.00;95525.22;1795984;80;21065;-59
2021/07/30 04:24:34;;;;;;;4.15;2.60;;;;;;;15.90;79.78;95530.70;1796371;80;21496;-59
2021/07/30 04:27:01;;;;;;;3.08;2.65;;;;;;;15.94;79.80;95526.97;1795913;79;21032;-59
2021/07/30 04:29:27;;;;;;;4.35;3.12;;;;;;;15.99;80.06;95526.31;1796631;80;21013;-59
2021/07/30 04:31:53;;;;;;;4.05;3.15;;;;;;;16.13;80.08;95524.44;1796307;79;21029;-59
2021/07/30 04:34:20;;;;;;;4.95;3.05;;;;;;;16.30;79.52;95529.50;1796455;79;20969;-59
2021/07/30 04:36:47;;;;;;;7.22;3.65;;;;;;;16.39;78.79;95523.33;1796390;80;21558;-58
2021/07/30 04:39:13;;;;;;;4.80;2.92;;;;;;;16.47;79.14;95521.66;1796440;80;20982;-59
2021/07/30 04:41:39;;;;;;;4.22;2.87;;;;;;;16.60;78.82;95528.66;1796156;80;21499;-59
2021/07/30 04:44:07;;;;;;;5.97;3.42;;;;;;;16.62;78.82;95521.47;1796671;79;20981;-58
2021/07/30 04:46:33;;;;;;;3.83;3.42;;;;;;;16.68;79.20;95524.33;1796203;80;20994;-59
2021/07/30 04:48:59;;;;;;;4.45;2.95;;;;;;;16.80;79.05;95528.69;1796429;80;21005;-58
2021/07/30 04:51:26;;;;;;;6.40;3.55;;;;;;;16.86;78.00;95524.91;1796398;80;21025;-59
2021/07/30 04:53:52;;;;;;;4.47;3.42;;;;;;;16.98;78.38;95520.81;1796069;80;21036;-59
2021/07/30 04:56:19;;;;;;;4.37;3.37;;;;;;;17.06;78.07;95528.02;1796183;80;20994;-59
2021/07/30 04:58:47;;;;;;;4.58;3.30;;;;;;;17.18;78.09;95523.91;1796110;80;21005;-59
2021/07/30 05:01:14;;;;;;;5.33;3.52;;;;;;;17.27;77.34;95519.50;1796113;80;20989;-59
2021/07/30 05:03:40;;;;;;;6.37;3.80;;;;;;;17.38;77.21;95522.99;1796565;79;21035;-59
2021/07/30 05:06:16;;;;;;;4.40;3.65;;;;;;;17.48;77.14;95522.48;1796458;80;21050;-59
2021/07/30 05:08:43;;;;;;;4.78;4.25;;;;;;;17.58;76.82;95518.92;1796085;80;21040;-59
2021/07/30 05:11:11;;;;;;;5.20;3.55;;;;;;;17.67;76.70;95521.16;1796124;79;22360;-59
2021/07/30 05:13:39;;;;;;;4.47;3.70;;;;;;;17.80;76.49;95501.92;1787687;80;21025;-59
2021/07/30 05:16:09;;;;;;;5.92;3.42;;;;;;;17.80;76.49;95501.92;1787624;80;20994;-59
2021/07/30 05:18:36;;;;;;;6.35;3.83;;;;;;;17.90;76.21;95514.74;1787483;80;21017;-59
2021/07/30 05:21:06;;;;;;;6.17;3.50;;;;;;;18.00;76.51;95518.31;1787604;80;20978;-59
2021/07/30 05:23:33;;;;;;;5.80;3.60;;;;;;;18.09;76.31;95516.06;1787527;80;21006;-59
2021/07/30 05:26:02;;;;;;;4.03;3.10;;;;;;;18.24;76.05;95518.88;1787681;80;21447;-59
2021/07/30 05:28:28;;;;;;;6.78;2.95;;;;;;;18.35;76.21;95510.73;1787643;80;21503;-59
2021/07/30 05:30:57;;;;;;;3.80;3.25;;;;;;;18.52;75.78;95511.67;1787654;80;21013;-60
2021/07/30 05:33:26;;;;;;;3.58;2.95;;;;;;;18.66;75.15;95516.33;1787803;80;21005;-60
2021/07/30 05:35:53;;;;;;;6.62;3.10;;;;;;;18.83;73.86;95514.16;1787706;80;21045;-59
2021/07/30 05:38:22;;;;;;;4.53;3.10;;;;;;;18.92;71.95;95505.15;1787725;80;21021;-59
2021/07/30 05:40:49;;;;;;;4.55;3.17;;;;;;;18.97;71.82;95505.77;1787694;80;20993;-59
2021/07/30 05:43:16;;;;;;;2.80;2.60;;;;;;;19.18;71.09;95508.27;1787327;80;21049;-59
2021/07/30 05:45:43;;;;;;;3.60;2.92;;;;;;;19.31;71.56;95505.31;1787809;80;21005;-59
2021/07/30 05:48:10;;;;;;;4.78;3.30;;;;;;;19.46;71.70;95507.15;1787651;80;21009;-58
2021/07/30 05:50:37;;;;;;;6.03;3.00;;;;;;;19.65;71.00;95501.66;1787522;80;21061;-59
2021/07/30 05:53:04;;;;;;;5.42;2.95;;;;;;;19.81;70.68;95503.50;1787413;80;21009;-59
2021/07/30 05:55:30;;;;;;;4.17;3.30;;;;;;;19.96;70.59;95489.23;1787824;80;21013;-59
2021/07/30 05:58:00;;;;;;;5.45;3.90;;;;;;;20.09;70.12;95491.59;1787607;80;21009;-59
2021/07/30 06:00:26;;;;;;;9.98;2.77;;;;;;;20.21;68.86;95495.84;1787492;80;21491;-58
2021/07/30 06:02:53;;;;;;;5.08;2.90;;;;;;;20.24;67.43;95490.33;1787589;80;21006;-61
2021/07/30 06:05:19;;;;;;;5.33;3.50;;;;;;;20.34;68.20;95488.83;1787619;80;21052;-59
2021/07/30 06:07:46;;;;;;;6.55;3.98;;;;;;;20.46;68.73;95489.91;1787325;80;21546;-59
2021/07/30 06:10:12;;;;;;;6.53;3.58;;;;;;;20.59;68.87;95488.27;1787673;80;20989;-59
2021/07/30 06:12:39;;;;;;;6.10;3.70;;;;;;;20.72;68.87;95490.59;1786849;80;21499;-58
2021/07/30 06:15:07;;;;;;;5.05;3.40;;;;;;;20.84;68.47;95490.80;1787736;80;21004;-59
2021/07/30 06:17:33;;;;;;;7.33;4.28;;;;;;;20.93;68.55;95497.80;1787557;80;21009;-60
2021/07/30 06:20:00;;;;;;;14.93;7.78;;;;;;;21.05;68.65;95492.17;1787322;80;21017;-59
2021/07/30 06:22:27;;;;;;;23.95;10.58;;;;;;;21.18;68.94;95494.96;1787484;80;21048;-59
2021/07/30 06:24:53;;;;;;;21.75;11.40;;;;;;;21.29;68.30;95487.58;1787621;80;21033;-60
2021/07/30 06:27:20;;;;;;;26.62;12.13;;;;;;;21.38;68.15;95489.69;1787459;80;20989;-58
2021/07/30 06:29:46;;;;;;;29.87;12.03;;;;;;;21.49;68.11;95486.35;1787706;80;20998;-59
2021/07/30 06:32:13;;;;;;;39.80;11.70;;;;;;;21.63;68.15;95489.03;1787581;80;20958;-58
2021/07/30 06:34:39;;;;;;;39.08;9.68;;;;;;;21.77;67.90;95486.33;1787647;80;21526;-58
2021/07/30 06:37:05;;;;;;;39.40;7.95;;;;;;;21.91;67.47;95494.83;1787821;80;20978;-58
2021/07/30 06:39:32;;;;;;;35.75;6.67;;;;;;;22.04;66.92;95494.39;1787481;80;21010;-59
2021/07/30 06:41:58;;;;;;;43.15;10.32;;;;;;;22.18;67.12;95494.84;1787567;80;21436;-59
2021/07/30 06:44:25;;;;;;;63.00;18.00;;;;;;;22.32;66.47;95489.06;1787585;80;21006;-59
2021/07/30 06:46:51;;;;;;;62.05;15.78;;;;;;;22.44;66.44;95482.87;1787618;80;20985;-59
2021/07/30 06:49:17;;;;;;;82.45;17.50;;;;;;;22.58;66.14;95491.33;1787601;80;21006;-59
2021/07/30 06:51:44;;;;;;;51.33;11.40;;;;;;;22.73;65.54;95484.94;1787984;80;20976;-59
2021/07/30 06:54:10;;;;;;;52.67;9.93;;;;;;;22.84;64.67;95485.53;1787494;80;20998;-59
2021/07/30 06:56:37;;;;;;;59.15;9.63;;;;;;;22.96;65.45;95479.31;1787351;80;21550;-59
2021/07/30 06:59:04;;;;;;;42.93;7.80;;;;;;;23.12;64.94;95484.51;1787546;80;21476;-59
2021/07/30 07:01:30;;;;;;;35.45;7.35;;;;;;;23.25;63.90;95474.59;1787811;80;20981;-59
2021/07/30 07:03:59;;;;;;;39.45;12.60;;;;;;;23.40;64.00;95465.91;1787409;80;21041;-59
2021/07/30 07:06:25;;;;;;;45.12;13.75;;;;;;;23.53;60.89;95467.23;1787526;80;20970;-59
2021/07/30 07:08:52;;;;;;;27.32;7.78;;;;;;;23.65;61.40;95462.31;1787580;80;21045;-58
2021/07/30 07:11:18;;;;;;;18.05;6.90;;;;;;;23.79;61.45;95456.44;1787374;80;21021;-59
2021/07/30 07:13:44;;;;;;;14.30;6.47;;;;;;;23.92;60.76;95454.58;1786886;78;21025;-59
2021/07/30 07:16:11;;;;;;;11.30;4.65;;;;;;;24.06;60.76;95450.85;1787804;80;21002;-59
2021/07/30 07:18:37;;;;;;;9.30;4.25;;;;;;;24.17;59.04;95447.73;1787733;80;21582;-59
2021/07/30 07:21:04;;;;;;;9.83;4.03;;;;;;;24.29;57.08;95446.42;1787661;80;20962;-59
2021/07/30 07:23:30;;;;;;;7.80;3.33;;;;;;;24.42;58.04;95452.64;1787444;80;21069;-59
2021/07/30 07:26:00;;;;;;;6.65;3.30;;;;;;;24.51;55.42;95448.40;1787742;80;20938;-59
2021/07/30 07:28:27;;;;;;;8.28;3.50;;;;;;;24.61;54.85;95448.06;1787686;80;21464;-58
2021/07/30 07:30:54;;;;;;;5.70;2.92;;;;;;;24.77;55.83;95452.67;1787789;80;21020;-58
2021/07/30 07:33:21;;;;;;;4.80;2.70;;;;;;;24.90;53.28;95447.67;1787464;80;21061;-59
2021/07/30 07:35:47;;;;;;;7.62;3.22;;;;;;;24.96;46.66;95449.39;1787396;80;21006;-59
2021/07/30 07:38:14;;;;;;;10.93;3.67;;;;;;;25.04;49.90;95450.98;1787537;80;20970;-59
2021/07/30 07:40:44;;;;;;;3.87;2.95;;;;;;;25.17;48.19;95448.70;1788089;80;20970;-59
2021/07/30 07:43:11;;;;;;;2.90;2.50;;;;;;;25.29;49.75;95450.94;1787488;80;21486;-59
2021/07/30 07:45:38;;;;;;;5.20;2.60;;;;;;;25.38;47.34;95451.07;1787725;80;21113;-58
2021/07/30 07:48:06;;;;;;;6.25;2.85;;;;;;;25.52;49.09;95455.85;1787862;80;21002;-59
2021/07/30 07:50:32;;;;;;;5.85;2.80;;;;;;;25.60;44.39;95456.97;1787862;80;20958;-59
2021/07/30 07:52:58;;;;;;;7.35;3.25;;;;;;;25.70;45.97;95446.25;1787924;80;20973;-59
2021/07/30 07:55:25;;;;;;;8.65;3.72;;;;;;;25.86;47.74;95454.03;1787566;80;21029;-59
2021/07/30 07:57:51;;;;;;;7.20;3.27;;;;;;;25.99;46.91;95457.94;1787704;80;21041;-58
2021/07/30 08:00:18;;;;;;;8.43;3.77;;;;;;;26.14;47.14;95459.37;1787442;80;20990;-58
2021/07/30 08:02:45;;;;;;;9.10;3.35;;;;;;;26.29;44.87;95457.25;1787778;80;20997;-59
2021/07/30 08:05:11;;;;;;;8.55;3.00;;;;;;;26.41;45.44;95453.98;1782875;80;21048;-59
2021/07/30 08:07:38;;;;;;;7.80;3.92;;;;;;;26.51;46.77;95457.17;1788038;80;21033;-58
2021/07/30 08:10:08;;;;;;;9.63;4.60;;;;;;;26.63;46.65;95455.78;1787536;80;21056;-58
2021/07/30 08:12:34;;;;;;;7.03;3.85;;;;;;;26.76;45.98;95455.98;1787549;80;21456;-58
2021/07/30 08:15:02;;;;;;;5.00;3.60;;;;;;;26.80;44.47;95452.50;1787892;80;21006;-58
2021/07/30 08:17:28;;;;;;;6.95;3.50;;;;;;;26.86;44.87;95457.88;1787547;80;21009;-58
2021/07/30 08:19:55;;;;;;;6.25;3.25;;;;;;;26.84;40.99;95455.80;1787820;80;21033;-58
2021/07/30 08:22:21;;;;;;;4.80;3.40;;;;;;;26.87;42.23;95454.20;1787809;80;21010;-58
2021/07/30 08:24:48;;;;;;;6.30;3.42;;;;;;;26.95;43.03;95464.72;1787550;80;21041;-59
2021/07/30 08:27:15;;;;;;;4.55;2.70;;;;;;;26.95;40.15;95463.37;1787431;80;21028;-58
2021/07/30 08:29:42;;;;;;;6.08;3.52;;;;;;;27.07;42.84;95464.67;1787756;80;21531;-59
2021/07/30 08:32:09;;;;;;;3.67;3.37;;;;;;;27.18;43.18;95455.99;1787756;80;20998;-59
2021/07/30 08:34:40;;;;;;;6.60;3.00;;;;;;;27.29;43.53;95458.27;1787832;80;20997;-59
2021/07/30 08:37:08;;;;;;;6.65;3.75;;;;;;;27.42;43.32;95457.57;1787818;80;21523;-59
2021/07/30 08:39:36;;;;;;;7.50;3.30;;;;;;;27.56;42.61;95453.63;1787725;80;20973;-59
2021/07/30 08:42:04;;;;;;;5.33;3.17;;;;;;;27.57;38.95;95454.01;1787565;80;21009;-58
2021/07/30 08:44:33;;;;;;;4.60;3.08;;;;;;;27.60;39.52;95453.73;1787500;80;20993;-58
2021/07/30 08:47:00;;;;;;;6.97;3.47;;;;;;;27.51;38.95;95454.03;1787698;80;21013;-58
2021/07/30 08:49:27;;;;;;;5.97;3.10;;;;;;;27.63;39.95;95453.45;1787479;80;21055;-58
2021/07/30 08:52:12;;;;;;;4.67;3.30;;;;;;;27.73;39.41;95460.27;1787742;80;20963;-58
2021/07/30 08:54:40;;;;;;;4.92;3.05;;;;;;;27.80;39.34;95457.38;1787095;80;20970;-59
2021/07/30 08:57:11;;;;;;;4.22;3.15;;;;;;;27.87;39.58;95452.27;1787786;80;21041;-58
2021/07/30 08:59:39;;;;;;;7.47;3.37;;;;;;;28.03;40.49;95454.83;1786424;80;20982;-59
2021/07/30 09:02:08;;;;;;;7.12;3.77;;;;;;;28.19;41.26;95452.08;1787812;80;21010;-58
2021/07/30 09:04:35;;;;;;;6.62;3.72;;;;;;;28.30;39.87;95451.97;1787742;80;21049;-58
2021/07/30 09:07:04;;;;;;;9.48;3.25;;;;;;;28.39;40.12;95455.17;1787901;80;20977;-59
2021/07/30 09:09:32;;;;;;;9.43;3.25;;;;;;;28.53;41.17;95455.81;1787670;80;21077;-59
2021/07/30 09:12:01;;;;;;;4.90;3.60;;;;;;;28.65;40.69;95451.94;1787756;80;21005;-59
2021/07/30 09:14:48;;;;;;;3.92;3.40;;;;;;;28.80;40.97;95453.72;1787496;80;21488;-59
2021/07/30 09:17:15;;;;;;;5.58;3.52;;;;;;;28.94;39.12;95457.87;1787849;80;20997;-59
2021/07/30 09:20:04;;;;;;;11.30;3.72;;;;;;;28.97;39.11;95454.86;1787788;80;21043;-59
2021/07/30 09:22:50;;;;;;;4.30;3.50;;;;;;;29.04;39.63;95451.42;1787703;80;21068;-59
2021/07/30 09:25:37;;;;;;;3.83;3.40;;;;;;;29.21;39.06;95445.78;1787862;80;20974;-59
2021/07/30 09:28:08;;;;;;;3.75;3.40;;;;;;;29.34;39.91;95449.03;1787468;80;21001;-59
2021/07/30 09:30:35;;;;;;;6.37;3.47;;;;;;;29.36;39.27;95452.97;1787828;80;20982;-58
2021/07/30 09:33:02;;;;;;;3.95;3.65;;;;;;;29.48;38.98;95449.08;1787879;80;21040;-59
2021/07/30 09:35:29;;;;;;;4.70;3.52;;;;;;;29.62;38.58;95444.16;1787605;80;21492;-58
2021/07/30 09:38:16;;;;;;;5.83;3.60;;;;;;;29.70;38.68;95444.29;1787449;80;21049;-59
2021/07/30 09:40:42;;;;;;;5.25;3.60;;;;;;;29.80;38.85;95446.47;1787683;80;21474;-59
2021/07/30 09:43:26;;;;;;;4.00;3.60;;;;;;;29.89;38.84;95439.28;1787643;80;20993;-59
2021/07/30 09:46:15;;;;;;;4.15;3.62;;;;;;;29.84;36.71;95432.08;1787750;80;21004;-59
2021/07/30 09:48:53;;;;;;;5.10;3.25;;;;;;;29.78;36.41;95435.38;1787667;80;21475;-59
2021/07/30 09:51:20;;;;;;;4.17;3.70;;;;;;;29.85;36.18;95434.63;1787759;80;21473;-59
2021/07/30 09:53:48;;;;;;;5.83;3.70;;;;;;;30.01;36.67;95429.88;1787524;80;21021;-58
2021/07/30 09:56:16;;;;;;;5.28;3.50;;;;;;;30.07;36.44;95430.66;1787573;80;21020;-59
2021/07/30 09:58:47;;;;;;;4.30;3.62;;;;;;;30.12;36.70;95428.84;1787304;80;21022;-59
2021/07/30 10:01:19;;;;;;;5.12;3.37;;;;;;;30.20;35.90;95424.33;1788186;80;20973;-59
2021/07/30 10:03:47;;;;;;;3.87;3.08;;;;;;;30.24;35.59;95422.66;1787335;80;21006;-59
2021/07/30 10:06:14;;;;;;;5.40;3.47;;;;;;;30.35;35.90;95419.77;1787599;80;21037;-59
2021/07/30 10:08:44;;;;;;;4.50;3.62;;;;;;;30.47;36.05;95425.34;1787372;80;21483;-59
2021/07/30 10:11:12;;;;;;;6.72;4.12;;;;;;;30.51;35.14;95417.70;1787649;80;21017;-59
2021/07/30 10:13:49;;;;;;;5.50;3.37;;;;;;;30.54;34.35;95412.82;1787567;80;20997;-60
2021/07/30 10:16:20;;;;;;;4.47;3.62;;;;;;;30.63;35.17;95409.14;1796355;80;20950;-60
2021/07/30 10:18:49;;;;;;;3.60;3.30;;;;;;;30.73;33.88;95413.66;1796683;80;21048;-63
2021/07/30 10:21:22;;;;;;;4.35;3.55;;;;;;;30.75;35.06;95404.83;1796410;80;20962;-61
2021/07/30 10:23:52;;;;;;;6.92;3.37;;;;;;;30.88;35.76;95408.55;1796270;79;20981;-60
2021/07/30 10:26:26;;;;;;;7.33;3.65;;;;;;;30.95;35.81;95407.75;1796316;79;21036;-62
2021/07/30 10:28:59;;;;;;;4.97;3.70;;;;;;;31.08;35.40;95399.67;1796136;80;21033;-60
2021/07/30 10:31:48;;;;;;;5.80;3.37;;;;;;;31.11;34.73;95396.63;1796078;80;20985;-59
2021/07/30 10:34:18;;;;;;;8.55;3.85;;;;;;;31.16;35.12;95397.84;1791156;79;21005;-59
2021/07/30 10:36:45;;;;;;;7.95;3.60;;;;;;;31.29;34.90;95392.48;1796051;80;21009;-59
2021/07/30 10:39:18;;;;;;;8.08;3.67;;;;;;;31.39;34.91;95391.89;1796306;80;20977;-60
2021/07/30 10:42:13;;;;;;;6.90;3.33;;;;;;;31.50;34.43;95386.17;1796278;80;21478;-60
2021/07/30 10:45:08;;;;;;;6.40;3.45;;;;;;;31.56;33.17;95384.15;1796170;79;20996;-59
2021/07/30 10:47:36;;;;;;;6.47;3.65;;;;;;;31.63;35.56;95381.12;1793938;79;20986;-59
2021/07/30 10:50:04;;;;;;;10.68;4.00;;;;;;;31.73;34.87;95379.63;1796097;79;21016;-59
2021/07/30 10:52:30;;;;;;;7.47;3.05;;;;;;;31.76;32.94;95369.75;1796110;80;21021;-59
2021/07/30 10:54:57;;;;;;;9.40;3.80;;;;;;;31.82;33.12;95378.62;1795968;80;21021;-60
2021/07/30 10:57:49;;;;;;;7.12;3.80;;;;;;;31.81;32.63;95369.27;1796225;80;21016;-59
2021/07/30 11:00:17;;;;;;;6.87;3.40;;;;;;;31.84;32.03;95370.29;1795382;80;21016;-59
2021/07/30 11:03:05;;;;;;;6.75;3.75;;;;;;;31.82;32.49;95373.17;1796337;79;21215;-60
2021/07/30 11:05:33;;;;;;;5.85;3.50;;;;;;;31.86;32.49;95369.63;1796251;80;21057;-59
2021/07/30 11:08:01;;;;;;;7.17;3.80;;;;;;;31.82;31.14;95371.80;1796802;79;21326;-59
2021/07/30 11:10:28;;;;;;;7.08;3.83;;;;;;;31.84;31.69;95373.02;1796017;79;21056;-59
2021/07/30 11:12:55;;;;;;;7.40;3.58;;;;;;;32.00;31.58;95371.73;1795854;79;20929;-59
2021/07/30 11:15:22;;;;;;;7.80;3.77;;;;;;;32.11;32.37;95363.25;1796067;80;21009;-59
2021/07/30 11:17:50;;;;;;;3.65;3.35;;;;;;;32.24;32.09;95375.56;1795532;79;21017;-59
2021/07/30 11:20:17;;;;;;;4.12;3.30;;;;;;;32.37;31.58;95371.83;1796280;79;20981;-59
2021/07/30 11:22:43;;;;;;;3.80;2.83;;;;;;;32.07;27.76;95373.30;1796575;79;20985;-59
2021/07/30 11:25:14;;;;;;;3.80;3.40;;;;;;;31.78;27.42;95365.51;1796306;80;21336;-59
2021/07/30 11:27:41;;;;;;;3.15;2.95;;;;;;;31.68;30.55;95371.09;1796530;79;20982;-59
2021/07/30 11:30:10;;;;;;;4.90;3.47;;;;;;;31.84;30.21;95362.95;1795978;79;21483;-59
2021/07/30 11:32:36;;;;;;;4.40;3.67;;;;;;;31.78;29.21;95364.99;1796297;79;21015;-58
2021/07/30 11:35:09;;;;;;;5.47;4.03;;;;;;;31.93;30.06;95367.06;1796490;79;20989;-59
2021/07/30 11:37:32;;;;;;;5.33;3.52;;;;;;;32.18;31.99;95362.08;1795493;80;21056;-59
2021/07/30 11:39:59;;;;;;;3.70;3.40;;;;;;;32.43;31.16;95366.19;1796269;80;21510;-59